Terminal Aerodrome Forecast
Issued by NWS Amarillo, TX

Home | Current Version | Previous Version | Text Only | Print | Product List | Glossary On
Versions: 1 2 3 4 5 6 7 8 9 10 11 12 13 14
000
FTUS44 KAMA 300500
TAFGUY
TAF
KGUY 300521Z 3006/3106 18005KT P6SM SCT100 OVC300
     FM301500 19012KT P6SM OVC060
     FM302100 19014KT P6SM OVC025
      TEMPO 3021/3101 5SM -RASN BR
     FM310100 18012KT 5SM -RASN BR OVC015=

USA.gov is the U.S. government's official web portal to all federal, state and local government web resources and services.